Time;durP1;ratioP1;P1;durP2;ratioP2;P2;SDS_P1;SDS_P2;PMS_P1;PMS_P2;Temp;Humidity;BMP_temperature;BMP_pressure;BME280_temperature;BME280_humidity;BME280_pressure;Samples;Min_cycle;Max_cycle;Signal;HPM_P1;HPM_P2
2022/04/19 00:01:56;;;;;;;;;;;11.90;33.00;;;;;;8372936;28;20013;-73
2022/04/19 00:05:58;;;;;;;;;;;11.80;33.60;;;;;;8409819;28;20364;-73
2022/04/19 00:10:00;;;;;;;;;;;11.60;33.90;;;;;;8385676;28;19921;-73
2022/04/19 00:14:02;;;;;;;;;;;11.50;33.20;;;;;;8388261;28;19948;-73
2022/04/19 00:18:05;;;;;;;;;;;11.40;33.20;;;;;;8380185;28;19929;-73
2022/04/19 00:22:07;;;;;;;;;;;11.30;33.20;;;;;;8395797;28;20250;-73
2022/04/19 00:26:09;;;;;;;;;;;11.20;33.70;;;;;;8390443;28;20387;-73
2022/04/19 00:30:11;;;;;;;;;;;11.10;33.60;;;;;;8389002;28;19921;-73
2022/04/19 00:34:13;;;;;;;;;;;11.10;33.50;;;;;;8390616;28;21961;-73
2022/04/19 00:38:15;;;;;;;;;;;11.00;34.20;;;;;;8401901;28;19921;-73
2022/04/19 00:42:17;;;;;;;;;;;10.90;33.90;;;;;;8388662;28;19935;-73
2022/04/19 00:46:19;;;;;;;;;;;10.90;34.00;;;;;;8388240;28;19951;-73
2022/04/19 00:50:22;;;;;;;;;;;10.80;33.90;;;;;;8386886;28;19971;-73
2022/04/19 00:54:24;;;;;;;;;;;10.80;33.70;;;;;;8384811;28;19950;-73
2022/04/19 00:58:26;;;;;;;;;;;10.80;34.00;;;;;;8390674;28;20295;-73
2022/04/19 01:02:27;;;;;;;;;;;10.70;34.00;;;;;;8386089;28;19928;-73
2022/04/19 01:06:29;;;;;;;;;;;10.70;34.40;;;;;;8387690;28;19974;-73
2022/04/19 01:10:31;;;;;;;;;;;10.70;35.00;;;;;;8383865;28;19928;-73
2022/04/19 01:14:34;;;;;;;;;;;10.60;34.60;;;;;;8391052;28;19924;-73
2022/04/19 01:18:36;;;;;;;;;;;10.50;34.50;;;;;;8381792;28;19920;-73
2022/04/19 01:22:38;;;;;;;;;;;10.50;34.70;;;;;;8378661;28;19927;-73
2022/04/19 01:26:41;;;;;;;;;;;10.40;34.60;;;;;;8390989;28;19920;-73
2022/04/19 01:30:45;;;;;;;;;;;10.40;35.20;;;;;;8390745;28;19924;-73
2022/04/19 01:34:47;;;;;;;;;;;10.30;35.10;;;;;;8388498;28;19920;-73
2022/04/19 01:38:49;;;;;;;;;;;10.20;34.70;;;;;;8384818;28;19924;-73
2022/04/19 01:42:50;;;;;;;;;;;10.10;35.10;;;;;;8397932;28;19928;-73
2022/04/19 01:46:52;;;;;;;;;;;10.00;35.00;;;;;;8386018;28;19927;-73
2022/04/19 01:50:53;;;;;;;;;;;10.00;35.50;;;;;;8388201;28;19924;-73
2022/04/19 01:54:55;;;;;;;;;;;10.00;35.90;;;;;;8392271;28;19931;-73
2022/04/19 01:58:57;;;;;;;;;;;9.90;36.50;;;;;;8383777;28;19931;-73
2022/04/19 02:02:58;;;;;;;;;;;9.80;36.80;;;;;;8385487;28;19931;-73
2022/04/19 02:07:00;;;;;;;;;;;9.70;36.90;;;;;;8395146;28;19943;-73
2022/04/19 02:11:02;;;;;;;;;;;9.70;36.90;;;;;;8382905;28;19928;-73
2022/04/19 02:15:03;;;;;;;;;;;9.70;36.80;;;;;;8379500;28;19921;-73
2022/04/19 02:19:05;;;;;;;;;;;9.60;37.50;;;;;;8386562;28;19935;-73
2022/04/19 02:23:06;;;;;;;;;;;9.50;37.70;;;;;;8380645;28;19921;-73
2022/04/19 02:27:08;;;;;;;;;;;9.50;37.40;;;;;;8384935;28;19924;-73
2022/04/19 02:31:10;;;;;;;;;;;9.40;37.40;;;;;;8388531;28;19931;-73
2022/04/19 02:35:14;;;;;;;;;;;9.40;37.70;;;;;;8386474;28;19920;-73
2022/04/19 02:39:15;;;;;;;;;;;9.30;37.50;;;;;;8419443;27;20023;-73
2022/04/19 02:43:17;;;;;;;;;;;9.30;37.60;;;;;;8374785;28;19927;-73
2022/04/19 02:47:19;;;;;;;;;;;9.20;38.00;;;;;;8382239;28;19928;-73
2022/04/19 02:51:20;;;;;;;;;;;9.20;38.00;;;;;;8377073;28;20407;-73
2022/04/19 02:55:22;;;;;;;;;;;9.10;38.00;;;;;;8388755;28;19985;-73
2022/04/19 02:59:24;;;;;;;;;;;9.00;37.70;;;;;;8386386;28;19967;-73
2022/04/19 03:03:25;;;;;;;;;;;8.90;38.20;;;;;;8390060;28;20269;-73
2022/04/19 03:07:27;;;;;;;;;;;8.90;38.90;;;;;;8382089;28;19920;-73
2022/04/19 03:11:29;;;;;;;;;;;8.80;38.40;;;;;;8387491;28;19921;-73
2022/04/19 03:15:34;;;;;;;;;;;8.80;38.30;;;;;;8391837;28;19927;-73
2022/04/19 03:19:36;;;;;;;;;;;8.70;38.50;;;;;;8392775;28;20308;-73
2022/04/19 03:27:58;;;;;;;;;;;8.60;38.20;;;;;;8382350;28;19925;-73
2022/04/19 03:32:00;;;;;;;;;;;8.60;38.90;;;;;;8383262;28;19921;-73
2022/04/19 03:36:02;;;;;;;;;;;8.40;39.40;;;;;;8393029;28;19924;-73
2022/04/19 03:40:04;;;;;;;;;;;8.30;39.60;;;;;;8391368;28;20392;-73
2022/04/19 03:44:07;;;;;;;;;;;8.30;40.00;;;;;;8397027;28;19921;-73
2022/04/19 03:48:10;;;;;;;;;;;8.20;40.30;;;;;;8406613;28;19927;-73
2022/04/19 03:52:12;;;;;;;;;;;8.10;39.60;;;;;;8379025;28;20364;-73
2022/04/19 03:56:13;;;;;;;;;;;8.10;39.50;;;;;;8390515;28;19957;-73
2022/04/19 04:00:15;;;;;;;;;;;8.00;39.10;;;;;;8389673;28;19927;-73
2022/04/19 04:04:17;;;;;;;;;;;8.00;39.30;;;;;;8421562;28;19924;-73
2022/04/19 04:08:18;;;;;;;;;;;7.90;39.60;;;;;;8386832;28;20356;-73
2022/04/19 04:12:20;;;;;;;;;;;7.90;39.40;;;;;;8423645;28;20368;-73
2022/04/19 04:16:22;;;;;;;;;;;7.90;40.30;;;;;;8392256;28;19929;-73
2022/04/19 04:20:23;;;;;;;;;;;7.80;40.20;;;;;;8390492;28;21612;-73
2022/04/19 04:24:25;;;;;;;;;;;7.70;40.60;;;;;;8388337;28;19928;-73
2022/04/19 04:28:27;;;;;;;;;;;7.60;40.70;;;;;;8393187;28;19927;-72
2022/04/19 04:32:28;;;;;;;;;;;7.50;40.50;;;;;;8370412;28;19929;-71
2022/04/19 04:36:30;;;;;;;;;;;7.50;40.50;;;;;;8389478;28;19976;-71
2022/04/19 04:40:32;;;;;;;;;;;7.50;40.30;;;;;;8387601;28;20269;-71
2022/04/19 04:44:33;;;;;;;;;;;7.50;40.70;;;;;;8395741;28;19943;-71
2022/04/19 04:52:55;;;;;;;;;;;7.50;40.60;;;;;;8388849;28;19924;-71
2022/04/19 04:56:57;;;;;;;;;;;7.50;41.10;;;;;;8391708;28;19932;-71
2022/04/19 05:00:59;;;;;;;;;;;7.50;41.40;;;;;;8390838;28;19931;-71
2022/04/19 05:05:00;;;;;;;;;;;7.50;41.60;;;;;;8395779;28;19960;-71
2022/04/19 05:09:02;;;;;;;;;;;7.60;41.70;;;;;;8372440;28;19921;-71
2022/04/19 05:13:04;;;;;;;;;;;7.60;41.70;;;;;;8380094;28;19920;-71
2022/04/19 05:17:05;;;;;;;;;;;7.70;41.60;;;;;;8391634;28;20031;-71
2022/04/19 05:21:08;;;;;;;;;;;7.70;42.40;;;;;;8391414;28;19920;-71
2022/04/19 05:25:10;;;;;;;;;;;7.80;42.70;;;;;;8390196;28;19924;-71
2022/04/19 05:29:12;;;;;;;;;;;7.90;43.30;;;;;;8386845;28;20280;-71
2022/04/19 05:33:13;;;;;;;;;;;8.00;43.30;;;;;;8387601;28;20288;-71
2022/04/19 05:37:15;;;;;;;;;;;8.10;44.00;;;;;;8385250;28;19924;-71
2022/04/19 05:41:17;;;;;;;;;;;8.20;44.30;;;;;;8393590;28;19920;-71
2022/04/19 05:45:19;;;;;;;;;;;8.30;44.20;;;;;;8388865;28;19931;-71
2022/04/19 05:49:20;;;;;;;;;;;8.40;44.10;;;;;;8396349;28;19927;-71
2022/04/19 05:53:22;;;;;;;;;;;8.50;44.20;;;;;;8392645;28;20245;-71
2022/04/19 05:57:23;;;;;;;;;;;8.60;44.50;;;;;;8393117;28;20279;-71
2022/04/19 06:04:51;;;;;;;;;;;8.70;45.20;;;;;;8400114;28;19928;-71
2022/04/19 06:05:47;;;;;;;;;;;8.90;45.60;;;;;;8386933;28;20326;-71
2022/04/19 06:09:49;;;;;;;;;;;9.10;46.00;;;;;;8369119;28;19932;-71
2022/04/19 06:13:50;;;;;;;;;;;9.30;46.60;;;;;;8358239;28;20001;-71
2022/04/19 06:17:52;;;;;;;;;;;9.60;47.50;;;;;;8359151;28;19924;-71
2022/04/19 06:21:55;;;;;;;;;;;9.80;47.40;;;;;;8360271;28;19927;-71
2022/04/19 06:25:56;;;;;;;;;;;10.10;47.10;;;;;;8359480;28;19929;-71
2022/04/19 06:29:59;;;;;;;;;;;10.30;47.70;;;;;;8356935;28;19927;-71
2022/04/19 06:34:01;;;;;;;;;;;10.50;48.30;;;;;;8358216;28;19920;-71
2022/04/19 06:38:03;;;;;;;;;;;10.80;48.60;;;;;;8361941;28;19920;-71
2022/04/19 06:42:05;;;;;;;;;;;11.00;48.90;;;;;;8358762;28;19935;-71
2022/04/19 06:46:08;;;;;;;;;;;11.20;49.70;;;;;;8356906;28;20252;-71
2022/04/19 06:50:10;;;;;;;;;;;11.50;49.90;;;;;;8356232;28;19955;-71
2022/04/19 06:54:15;;;;;;;;;;;11.70;50.30;;;;;;8389688;28;19925;-71
2022/04/19 06:58:16;;;;;;;;;;;12.00;50.30;;;;;;8358352;28;19921;-71
2022/04/19 07:02:18;;;;;;;;;;;12.30;50.10;;;;;;8355782;28;19921;-71
2022/04/19 07:06:20;;;;;;;;;;;12.60;50.20;;;;;;8368262;28;19966;-71
2022/04/19 07:10:22;;;;;;;;;;;12.90;50.60;;;;;;8355324;28;20122;-71
2022/04/19 07:14:23;;;;;;;;;;;13.10;51.00;;;;;;8355086;28;19924;-71
2022/04/19 07:18:25;;;;;;;;;;;13.30;51.30;;;;;;8357894;28;19935;-71
2022/04/19 07:26:48;;;;;;;;;;;13.70;50.00;;;;;;8356985;28;19943;-71
2022/04/19 07:30:49;;;;;;;;;;;13.90;50.40;;;;;;8354022;28;19981;-71
2022/04/19 07:34:51;;;;;;;;;;;14.10;50.10;;;;;;8359796;28;19928;-71
2022/04/19 07:38:53;;;;;;;;;;;14.30;49.90;;;;;;8367987;28;20344;-71
2022/04/19 07:42:55;;;;;;;;;;;14.50;49.80;;;;;;8356697;28;19932;-71
2022/04/19 07:46:56;;;;;;;;;;;14.60;50.40;;;;;;8366287;28;19928;-71
2022/04/19 07:50:58;;;;;;;;;;;14.80;51.10;;;;;;8359419;28;19924;-71
2022/04/19 07:55:00;;;;;;;;;;;15.00;50.20;;;;;;8353804;28;19920;-71
2022/04/19 07:59:01;;;;;;;;;;;15.10;49.90;;;;;;8354012;28;19921;-71
2022/04/19 08:03:06;;;;;;;;;;;15.30;50.10;;;;;;8354290;28;19963;-71
2022/04/19 08:07:08;;;;;;;;;;;15.50;50.60;;;;;;8372358;28;19920;-71
2022/04/19 08:11:10;;;;;;;;;;;15.60;50.30;;;;;;8364025;28;20478;-71
2022/04/19 08:15:11;;;;;;;;;;;15.80;50.10;;;;;;8365729;28;20415;-71
2022/04/19 08:19:13;;;;;;;;;;;16.00;50.20;;;;;;8402040;28;19956;-71
2022/04/19 08:23:15;;;;;;;;;;;16.10;50.40;;;;;;8373193;28;19939;-71
2022/04/19 08:27:16;;;;;;;;;;;16.30;49.70;;;;;;8400544;28;19928;-71
2022/04/19 08:31:18;;;;;;;;;;;16.40;49.20;;;;;;8373206;28;19925;-71
2022/04/19 08:35:20;;;;;;;;;;;16.60;49.20;;;;;;8378818;28;20429;-71
2022/04/19 08:39:22;;;;;;;;;;;16.80;49.40;;;;;;8374812;28;19921;-71
2022/04/19 08:43:23;;;;;;;;;;;16.90;49.10;;;;;;8369659;28;19939;-71
2022/04/19 08:47:25;;;;;;;;;;;17.10;48.50;;;;;;8370622;28;19924;-71
2022/04/19 08:51:34;;;;;;;4.57;2.03;;;17.30;49.00;;;;;;8376278;28;20468;-71
2022/04/19 08:59:59;;;;;;;4.65;1.90;;;17.50;47.80;;;;;;8361528;28;20056;-71
2022/04/19 09:04:04;;;;;;;4.82;2.10;;;17.70;48.80;;;;;;8358431;28;20424;-71
2022/04/19 09:08:13;;;;;;;4.68;2.10;;;17.90;49.10;;;;;;8361572;28;20107;-71
2022/04/19 09:12:15;;;;;;;5.05;2.13;;;18.00;49.40;;;;;;8392657;28;20053;-71
2022/04/19 09:16:24;;;;;;;4.93;2.15;;;18.20;49.20;;;;;;8356559;28;20386;-71
2022/04/19 09:20:27;;;;;;;5.07;1.90;;;18.30;48.40;;;;;;8360037;28;20412;-71
2022/04/19 09:24:28;;;;;;;;;;;18.40;48.40;;;;;;8358807;28;20454;-71
2022/04/19 09:28:31;;;;;;;;;;;18.50;48.00;;;;;;8355710;28;19948;-71
2022/04/19 09:32:33;;;;;;;;;;;18.60;48.60;;;;;;8358910;28;19929;-71
2022/04/19 09:36:35;;;;;;;;;;;18.80;49.50;;;;;;8357744;28;19925;-71
2022/04/19 09:40:41;;;;;;;;;;;18.90;48.00;;;;;;8363670;28;19936;-71
2022/04/19 09:44:44;;;;;;;;;;;19.00;48.30;;;;;;8362753;28;19928;-71
2022/04/19 09:48:47;;;;;;;4.00;1.80;;;19.10;48.40;;;;;;8366100;28;19955;-71
2022/04/19 09:52:51;;;;;;;3.97;1.90;;;19.20;47.80;;;;;;8368070;28;20356;-71
2022/04/19 09:56:53;;;;;;;4.55;1.60;;;19.30;47.70;;;;;;8370483;28;20898;-71
2022/04/19 10:00:55;;;;;;;;;;;19.50;47.70;;;;;;8363499;28;20412;-71
2022/04/19 10:09:19;;;;;;;;;;;19.80;48.00;;;;;;8371793;28;19921;-71
2022/04/19 10:13:23;;;;;;;;;;;20.00;47.90;;;;;;8362165;28;19925;-71
2022/04/19 10:17:25;;;;;;;;;;;20.20;48.90;;;;;;8367694;28;19928;-71
2022/04/19 10:21:33;;;;;;;;;;;20.40;48.30;;;;;;8359160;28;19925;-71
2022/04/19 10:25:46;;;;;;;;;;;20.80;48.60;;;;;;8360209;28;19924;-71
2022/04/19 10:29:51;;;;;;;;;;;21.10;49.30;;;;;;8358520;28;19986;-71
2022/04/19 10:33:53;;;;;;;;;;;21.30;48.80;;;;;;8362452;28;19935;-71
2022/04/19 10:38:13;;;;;;;;;;;21.60;52.20;;;;;;8364685;28;19924;-71
2022/04/19 10:42:33;;;;;;;;;;;22.00;56.30;;;;;;8363374;28;20700;-71
2022/04/19 10:46:35;;;;;;;;;;;22.50;60.80;;;;;;8366812;28;20028;-71
2022/04/19 10:50:43;;;;;;;;;;;22.90;65.80;;;;;;8367615;28;19928;-71
2022/04/19 10:54:57;;;;;;;;;;;23.20;67.80;;;;;;8360571;28;20261;-71
2022/04/19 10:59:19;;;;;;;;;;;23.40;68.40;;;;;;8352603;28;19960;-71
2022/04/19 11:03:39;;;;;;;;;;;23.60;69.20;;;;;;8366241;28;19932;-71
2022/04/19 11:07:44;;;;;;;;;;;23.90;71.30;;;;;;8358919;28;19921;-71
2022/04/19 11:11:50;;;;;;;;;;;24.10;70.90;;;;;;8366091;28;20356;-71
2022/04/19 11:16:00;;;;;;;;;;;24.20;71.90;;;;;;8356227;28;20270;-71
2022/04/19 11:20:10;;;;;;;;;;;24.30;72.10;;;;;;8354937;28;19928;-71
2022/04/19 11:24:11;;;;;;;;;;;24.30;71.10;;;;;;8354189;28;19932;-71
2022/04/19 11:28:19;;;;;;;;;;;24.20;67.70;;;;;;8356824;28;23792;-72
2022/04/19 11:32:25;;;;;;;;;;;24.20;64.80;;;;;;8359716;28;19932;-72
2022/04/19 11:36:27;;;;;;;4.50;2.07;;;24.50;66.20;;;;;;8363099;28;19925;-71
2022/04/19 11:49:16;;;;;;;6.47;2.65;;;25.70;75.70;;;;;;8356192;28;20055;-71
2022/04/19 11:53:18;;;;;;;4.80;2.40;;;25.70;74.30;;;;;;8358330;28;20044;-71
2022/04/19 11:57:23;;;;;;;5.70;2.70;;;25.80;69.10;;;;;;8362277;28;20037;-71
2022/04/19 12:01:25;;;;;;;5.35;2.05;;;26.10;68.70;;;;;;8362429;28;20488;-71
2022/04/19 12:05:27;;;;;;;4.95;2.55;;;26.50;68.40;;;;;;8358109;28;20459;-71
2022/04/19 12:09:30;;;;;;;4.88;2.40;;;26.80;71.00;;;;;;8364711;28;20376;-71
2022/04/19 12:13:37;;;;;;;5.55;2.55;;;27.00;71.60;;;;;;8402943;28;20056;-72
2022/04/19 12:17:45;;;;;;;5.07;2.67;;;27.40;76.30;;;;;;8396670;27;20417;-71
2022/04/19 12:21:48;;;;;;;5.80;2.90;;;27.70;76.70;;;;;;8373680;28;20059;-71
2022/04/19 12:26:00;;;;;;;5.40;2.65;;;27.60;77.00;;;;;;8366391;28;20049;-71
2022/04/19 12:30:08;;;;;;;5.45;2.90;;;27.10;70.50;;;;;;8362677;28;20075;-71
2022/04/19 12:34:12;;;;;;;;;;;26.60;63.40;;;;;;8359226;28;20677;-71
2022/04/19 12:38:16;;;;;;;;;;;26.20;58.50;;;;;;8369933;28;20164;-71
2022/04/19 12:42:17;;;;;;;;;;;25.90;56.10;;;;;;8369949;28;19951;-71
2022/04/19 12:46:21;;;;;;;;;;;25.70;52.60;;;;;;8369795;28;19951;-71
2022/04/19 12:50:22;;;;;;;5.55;2.80;;;25.40;50.30;;;;;;8370284;28;20524;-71
2022/04/19 12:54:35;;;;;;;5.95;2.95;;;25.20;48.40;;;;;;8391268;27;20046;-71
2022/04/19 12:58:46;;;;;;;5.95;2.88;;;25.00;47.40;;;;;;8393116;28;20432;-71
2022/04/19 13:02:48;;;;;;;4.97;2.55;;;24.90;46.80;;;;;;8360497;28;20052;-71
2022/04/19 13:15:35;;;;;;;4.97;2.63;;;25.50;51.70;;;;;;8366329;28;20049;-71
2022/04/19 13:19:37;;;;;;;4.30;2.10;;;25.70;53.70;;;;;;8368852;28;20481;-71
2022/04/19 13:23:38;;;;;;;4.25;2.13;;;25.90;54.10;;;;;;8362767;28;20480;-71
2022/04/19 13:27:40;;;;;;;;;;;25.90;52.50;;;;;;8354826;28;20133;-71
2022/04/19 13:31:42;;;;;;;4.50;2.30;;;25.70;50.00;;;;;;8361556;28;19924;-71
2022/04/19 13:35:44;;;;;;;4.47;2.10;;;25.60;48.30;;;;;;8358305;28;20514;-71
2022/04/19 13:39:46;;;;;;;;;;;25.50;46.90;;;;;;8354939;28;20045;-71
2022/04/19 13:43:48;;;;;;;;;;;25.50;46.60;;;;;;8360704;28;20050;-71
2022/04/19 13:47:49;;;;;;;;;;;25.50;45.90;;;;;;8378098;28;19921;-71
2022/04/19 13:51:52;;;;;;;4.00;1.88;;;25.60;45.50;;;;;;8369817;28;19935;-71
2022/04/19 13:55:54;;;;;;;4.25;1.90;;;25.90;46.40;;;;;;8364190;28;20049;-71
2022/04/19 13:59:56;;;;;;;4.32;1.70;;;26.50;48.90;;;;;;8372502;28;20049;-71
2022/04/19 14:03:58;;;;;;;3.20;1.48;;;27.30;52.30;;;;;;8366485;28;20352;-72
2022/04/19 14:07:59;;;;;;;3.97;1.50;;;28.30;54.90;;;;;;8394048;28;21295;-71
2022/04/19 14:12:02;;;;;;;3.10;1.55;;;29.00;57.70;;;;;;8358113;28;20127;-72
2022/04/19 14:16:05;;;;;;;3.03;1.33;;;29.60;58.50;;;;;;8360960;28;20129;-71
2022/04/19 14:20:07;;;;;;;3.55;1.40;;;30.10;58.80;;;;;;8368480;28;20044;-71
2022/04/19 14:24:09;;;;;;;;;;;30.30;58.30;;;;;;8355310;28;20052;-71
2022/04/19 14:28:11;;;;;;;;;;;30.40;58.10;;;;;;8356031;28;20477;-71
2022/04/19 14:36:33;;;;;;;;;;;30.20;53.90;;;;;;8363668;28;20055;-71
2022/04/19 14:40:34;;;;;;;;;;;30.30;53.60;;;;;;8361770;28;20380;-71
2022/04/19 14:44:36;;;;;;;;;;;30.70;53.60;;;;;;8357487;28;20061;-71
2022/04/19 14:48:38;;;;;;;;;;;30.90;53.10;;;;;;8367896;28;20426;-71
2022/04/19 14:52:40;;;;;;;;;;;31.00;52.10;;;;;;8354141;28;20072;-71
2022/04/19 14:56:42;;;;;;;;;;;31.10;50.80;;;;;;8355450;28;20280;-71
2022/04/19 15:00:43;;;;;;;;;;;30.90;49.30;;;;;;8356329;28;20479;-71
2022/04/19 15:04:45;;;;;;;;;;;30.60;47.80;;;;;;8353134;28;20047;-71
2022/04/19 15:08:47;;;;;;;;;;;30.80;48.10;;;;;;8353980;28;20054;-71
2022/04/19 15:12:52;;;;;;;2.65;1.42;;;31.20;48.80;;;;;;8357757;28;20097;-71
2022/04/19 15:16:54;;;;;;;2.25;1.00;;;31.80;49.90;;;;;;8360987;28;20044;-71
2022/04/19 15:20:56;;;;;;;2.10;1.20;;;32.40;50.20;;;;;;8389649;28;20041;-71
2022/04/19 15:24:58;;;;;;;2.20;1.02;;;32.90;50.70;;;;;;8366131;28;20095;-71
2022/04/19 15:29:00;;;;;;;3.05;1.38;;;33.30;49.90;;;;;;8356927;28;20457;-71
2022/04/19 15:33:01;;;;;;;2.47;1.10;;;33.50;49.30;;;;;;8390147;28;20056;-71
2022/04/19 15:37:03;;;;;;;2.38;1.20;;;33.70;47.90;;;;;;8353350;28;20161;-71
2022/04/19 15:41:05;;;;;;;3.13;1.40;;;33.60;46.40;;;;;;8353443;28;20044;-71
2022/04/19 15:45:07;;;;;;;3.00;1.50;;;33.50;44.90;;;;;;8353935;28;20488;-71
2022/04/19 15:49:09;;;;;;;2.67;1.27;;;33.10;43.40;;;;;;8356452;28;20531;-71
2022/04/19 15:53:12;;;;;;;2.80;1.30;;;32.80;42.80;;;;;;8352761;28;20041;-71
2022/04/19 15:57:14;;;;;;;3.10;1.30;;;32.70;42.40;;;;;;8354098;28;20052;-71
2022/04/19 16:01:16;;;;;;;2.72;1.40;;;32.70;41.30;;;;;;8352796;28;20125;-71
2022/04/19 16:05:18;;;;;;;3.70;1.38;;;32.40;40.60;;;;;;8363472;28;20129;-71
2022/04/19 16:09:19;;;;;;;3.60;1.40;;;32.20;39.80;;;;;;8350601;28;20052;-71
2022/04/19 16:13:21;;;;;;;2.90;1.23;;;32.00;39.10;;;;;;8353663;28;20041;-71
2022/04/19 16:26:05;;;;;;;3.28;1.50;;;31.60;37.10;;;;;;8347814;28;20057;-71
2022/04/19 16:30:08;;;;;;;3.85;1.27;;;31.20;36.40;;;;;;8353082;28;20382;-71
2022/04/19 16:34:10;;;;;;;3.40;1.35;;;30.90;36.20;;;;;;8352795;28;20128;-71
2022/04/19 16:38:18;;;;;;;3.90;1.45;;;30.90;36.10;;;;;;8354618;28;20044;-71
2022/04/19 16:42:19;;;;;;;2.75;1.20;;;30.70;35.60;;;;;;8357734;28;20053;-71
2022/04/19 16:46:21;;;;;;;3.95;1.42;;;30.50;35.20;;;;;;8353070;28;20059;-71
2022/04/19 16:50:23;;;;;;;2.63;1.25;;;30.40;35.00;;;;;;8364525;28;20075;-71
2022/04/19 16:54:29;;;;;;;2.72;1.40;;;30.10;34.50;;;;;;8357189;28;20080;-71
2022/04/19 16:58:30;;;;;;;3.55;1.50;;;29.90;34.20;;;;;;8360108;28;20485;-71
2022/04/19 17:02:32;;;;;;;3.45;1.23;;;29.60;33.70;;;;;;8361510;28;20053;-71
2022/04/19 17:06:34;;;;;;;;;;;29.10;33.90;;;;;;8389771;27;20175;-71
2022/04/19 17:10:36;;;;;;;;;;;28.80;33.20;;;;;;8364878;28;19983;-71
2022/04/19 17:14:41;;;;;;;2.42;1.00;;;28.50;32.90;;;;;;8365232;28;19928;-71
2022/04/19 17:18:43;;;;;;;;;;;28.10;32.50;;;;;;8360347;28;20060;-71
2022/04/19 17:22:45;;;;;;;1.83;1.00;;;27.60;32.20;;;;;;8360606;28;20280;-71
2022/04/19 17:26:47;;;;;;;2.13;1.20;;;27.20;32.00;;;;;;8355919;28;20562;-71
2022/04/19 17:30:52;;;;;;;3.30;1.10;;;26.70;31.90;;;;;;8366734;28;20056;-72
2022/04/19 17:34:53;;;;;;;3.85;1.20;;;26.10;31.60;;;;;;8356036;28;20412;-71
2022/04/19 17:38:55;;;;;;;;;;;25.50;31.30;;;;;;8356346;28;20076;-71
2022/04/19 17:42:57;;;;;;;4.03;1.17;;;25.00;31.20;;;;;;8357724;28;19932;-71
2022/04/19 17:47:00;;;;;;;2.53;1.10;;;24.50;31.20;;;;;;8359178;28;20052;-71
2022/04/19 17:59:46;;;;;;;;;;;23.60;30.90;;;;;;8362941;28;20060;-71
2022/04/19 18:03:47;;;;;;;;;;;23.30;30.70;;;;;;8359634;28;20292;-71
2022/04/19 18:07:49;;;;;;;;;;;23.10;30.60;;;;;;8357446;28;22714;-70
2022/04/19 18:11:51;;;;;;;;;;;22.90;30.60;;;;;;8357705;28;20395;-70
2022/04/19 18:15:53;;;;;;;;;;;22.60;30.60;;;;;;8353924;28;20304;-71
2022/04/19 18:19:55;;;;;;;;;;;22.30;30.50;;;;;;8352567;28;20094;-70
2022/04/19 18:28:17;;;;;;;;;;;21.90;30.60;;;;;;8355857;28;19948;-71
2022/04/19 18:32:18;;;;;;;;;;;21.70;30.20;;;;;;8356107;28;19932;-71
2022/04/19 18:36:20;;;;;;;;;;;21.50;30.40;;;;;;8366325;28;20309;-71
2022/04/19 18:40:23;;;;;;;;;;;21.40;30.40;;;;;;8356672;28;19925;-71
2022/04/19 18:44:25;;;;;;;;;;;21.20;30.30;;;;;;8353500;28;19967;-71
2022/04/19 18:48:26;;;;;;;;;;;21.10;30.30;;;;;;8359745;28;19920;-71
2022/04/19 18:52:28;;;;;;;;;;;21.00;30.30;;;;;;8355759;28;20085;-71
2022/04/19 18:56:29;;;;;;;;;;;20.90;30.60;;;;;;8359159;28;19970;-71
2022/04/19 19:00:31;;;;;;;;;;;20.70;30.50;;;;;;8350020;28;19936;-71
2022/04/19 19:04:33;;;;;;;;;;;20.60;30.60;;;;;;8353894;28;19928;-70
2022/04/19 19:08:35;;;;;;;;;;;20.40;30.40;;;;;;8351220;28;19924;-71
2022/04/19 19:12:37;;;;;;;;;;;20.30;30.50;;;;;;8355496;28;19921;-71
2022/04/19 19:16:38;;;;;;;;;;;20.20;30.60;;;;;;8391600;28;19963;-71
2022/04/19 19:20:40;;;;;;;;;;;20.00;30.80;;;;;;8387412;28;20224;-71
2022/04/19 19:24:42;;;;;;;;;;;19.80;30.80;;;;;;8368623;28;20344;-71
2022/04/19 19:28:44;;;;;;;;;;;19.70;30.60;;;;;;8361547;28;19921;-71
2022/04/19 19:32:45;;;;;;;;;;;19.60;30.80;;;;;;8345870;28;20364;-71
2022/04/19 19:36:47;;;;;;;;;;;19.40;30.90;;;;;;8355162;28;19920;-71
2022/04/19 19:40:50;;;;;;;;;;;19.40;31.10;;;;;;8354424;28;19929;-70
2022/04/19 19:44:51;;;;;;;;;;;19.20;31.10;;;;;;8355607;28;19929;-71
2022/04/19 19:48:53;;;;;;;;;;;19.00;30.80;;;;;;8354973;28;19928;-71
2022/04/19 19:52:55;;;;;;;;;;;18.90;31.00;;;;;;8356258;28;20331;-71
2022/04/19 19:56:57;;;;;;;;;;;18.70;31.00;;;;;;8351995;28;20272;-71
2022/04/19 20:00:58;;;;;;;;;;;18.60;31.00;;;;;;8355944;28;19925;-71
2022/04/19 20:05:03;;;;;;;;;;;18.50;31.20;;;;;;8357199;28;19995;-71
2022/04/19 20:09:05;;;;;;;;;;;18.50;31.00;;;;;;8352743;28;19951;-71
2022/04/19 20:13:07;;;;;;;;;;;18.40;31.40;;;;;;8354923;28;19931;-71
2022/04/19 20:17:08;;;;;;;;;;;18.40;31.50;;;;;;8353732;28;19928;-71
2022/04/19 20:21:10;;;;;;;;;;;18.30;31.70;;;;;;8349550;28;20390;-71
2022/04/19 20:25:12;;;;;;;;;;;18.30;31.80;;;;;;8365426;28;19956;-71
2022/04/19 20:29:14;;;;;;;;;;;18.20;31.60;;;;;;8367693;28;19939;-71
2022/04/19 20:33:16;;;;;;;;;;;18.10;31.80;;;;;;8369790;28;20587;-71
2022/04/19 20:37:17;;;;;;;;;;;18.00;31.80;;;;;;8360612;28;20035;-71
2022/04/19 20:41:19;;;;;;;;;;;17.90;31.70;;;;;;8354064;28;20264;-71
2022/04/19 20:45:21;;;;;;;;;;;17.80;31.90;;;;;;8357634;28;19932;-71
2022/04/19 20:53:43;;;;;;;;;;;17.50;32.00;;;;;;8355953;28;20399;-71
2022/04/19 20:57:45;;;;;;;;;;;17.40;32.20;;;;;;8360732;28;19936;-71
2022/04/19 21:01:47;;;;;;;;;;;17.20;32.40;;;;;;8370660;28;20368;-71
2022/04/19 21:05:51;;;;;;;;;;;17.00;32.60;;;;;;8382277;28;19924;-71
2022/04/19 21:09:53;;;;;;;;;;;16.90;32.60;;;;;;8376671;28;19975;-71
2022/04/19 21:13:56;;;;;;;;;;;16.70;32.80;;;;;;8387749;28;19928;-71
2022/04/19 21:17:58;;;;;;;;;;;16.50;32.90;;;;;;8382925;28;19929;-71
2022/04/19 21:22:00;;;;;;;;;;;16.30;32.90;;;;;;8377806;28;19940;-71
2022/04/19 21:26:01;;;;;;;;;;;16.10;32.90;;;;;;8387870;28;19990;-71
2022/04/19 21:30:09;;;;;;;;;;;16.00;33.10;;;;;;8383974;28;20371;-71
2022/04/19 21:34:11;;;;;;;;;;;15.80;33.20;;;;;;8382223;28;22124;-71
2022/04/19 21:38:13;;;;;;;;;;;15.70;33.20;;;;;;8383872;28;19941;-71
2022/04/19 21:42:14;;;;;;;;;;;15.60;33.40;;;;;;8384477;28;19932;-71
2022/04/19 21:46:16;;;;;;;;;;;15.50;33.30;;;;;;8390234;28;19932;-71
2022/04/19 21:50:18;;;;;;;;;;;15.40;33.50;;;;;;8386378;28;19979;-71
2022/04/19 21:54:19;;;;;;;;;;;15.30;33.20;;;;;;8391338;28;19931;-71
2022/04/19 21:58:21;;;;;;;;;;;15.20;33.60;;;;;;8389237;28;19924;-71
2022/04/19 22:02:23;;;;;;;;;;;15.10;33.30;;;;;;8382150;28;20296;-71
2022/04/19 22:06:24;;;;;;;;;;;15.10;34.00;;;;;;8382393;28;19977;-71
2022/04/19 22:10:26;;;;;;;;;;;15.00;34.10;;;;;;8378319;28;20291;-71
2022/04/19 22:14:28;;;;;;;;;;;15.00;34.30;;;;;;8390059;28;20368;-71
2022/04/19 22:18:29;;;;;;;;;;;14.90;34.30;;;;;;8387139;28;19928;-71
2022/04/19 22:22:31;;;;;;;;;;;14.80;34.60;;;;;;8388466;28;20377;-71
2022/04/19 22:26:33;;;;;;;;;;;14.70;34.30;;;;;;8381252;28;20260;-71
2022/04/19 22:30:34;;;;;;;;;;;14.60;35.50;;;;;;8381343;28;19931;-71
2022/04/19 22:34:36;;;;;;;;;;;14.60;34.80;;;;;;8381079;28;19931;-71
2022/04/19 22:38:38;;;;;;;;;;;14.60;35.00;;;;;;8379797;28;19936;-71
2022/04/19 22:42:39;;;;;;;;;;;14.50;35.00;;;;;;8390380;28;19993;-71
2022/04/19 22:46:41;;;;;;;;;;;14.40;35.30;;;;;;8382554;28;20279;-70
2022/04/19 22:50:43;;;;;;;;;;;14.30;36.40;;;;;;8395104;28;19929;-71
2022/04/19 22:54:48;;;;;;;;;;;14.20;36.20;;;;;;8394459;28;19924;-71
2022/04/19 22:58:49;;;;;;;;;;;14.10;37.00;;;;;;8385124;28;19954;-71
2022/04/19 23:02:51;;;;;;;;;;;14.10;35.80;;;;;;8383365;28;19950;-71
2022/04/19 23:06:53;;;;;;;;;;;14.10;36.60;;;;;;8378083;28;20240;-70
2022/04/19 23:10:54;;;;;;;;;;;14.00;36.60;;;;;;8387637;28;19932;-70
2022/04/19 23:14:56;;;;;;;;;;;13.90;36.50;;;;;;8391603;28;19924;-70
2022/04/19 23:18:57;;;;;;;;;;;13.80;36.30;;;;;;8379807;28;19924;-70
2022/04/19 23:22:59;;;;;;;;;;;13.70;36.70;;;;;;8415419;28;19931;-70
2022/04/19 23:31:21;;;;;;;;;;;13.60;38.00;;;;;;8385835;28;19935;-70
2022/04/19 23:35:23;;;;;;;;;;;13.50;37.30;;;;;;8385263;28;20296;-70
2022/04/19 23:39:24;;;;;;;;;;;13.50;37.70;;;;;;8384233;28;20016;-70
2022/04/19 23:43:26;;;;;;;;;;;13.40;38.50;;;;;;8419353;27;20012;-70
2022/04/19 23:47:28;;;;;;;;;;;13.30;37.90;;;;;;8385833;28;19931;-70
2022/04/19 23:51:29;;;;;;;;;;;13.20;38.10;;;;;;8386521;28;19931;-70
2022/04/19 23:55:31;;;;;;;;;;;13.20;38.10;;;;;;8374771;28;19929;-70
2022/04/19 23:59:33;;;;;;;;;;;13.10;37.60;;;;;;8382062;28;19935;-70
